sensor_id;sensor_type;location;lat;lon;timestamp;temperature;humidity
72604;DHT22;60645;56.968;24.196;2022-08-01T00:00:07;21.40;69.80
72604;DHT22;60645;56.968;24.196;2022-08-01T00:02:39;21.40;69.10
72604;DHT22;60645;56.968;24.196;2022-08-01T00:05:08;21.40;69.60
72604;DHT22;60645;56.968;24.196;2022-08-01T00:07:35;21.40;69.20
72604;DHT22;60645;56.968;24.196;2022-08-01T00:10:04;21.50;69.50
72604;DHT22;60645;56.968;24.196;2022-08-01T00:12:32;21.50;69.30
72604;DHT22;60645;56.968;24.196;2022-08-01T00:14:59;21.50;69.40
72604;DHT22;60645;56.968;24.196;2022-08-01T00:17:26;21.50;69.00
72604;DHT22;60645;56.968;24.196;2022-08-01T00:19:52;21.50;68.90
72604;DHT22;60645;56.968;24.196;2022-08-01T00:22:19;21.40;68.60
72604;DHT22;60645;56.968;24.196;2022-08-01T00:24:46;21.40;68.90
72604;DHT22;60645;56.968;24.196;2022-08-01T00:27:13;21.30;68.90
72604;DHT22;60645;56.968;24.196;2022-08-01T00:29:40;21.10;69.40
72604;DHT22;60645;56.968;24.196;2022-08-01T00:32:29;21.10;69.90
72604;DHT22;60645;56.968;24.196;2022-08-01T00:34:56;21.00;70.30
72604;DHT22;60645;56.968;24.196;2022-08-01T00:37:23;21.00;70.00
72604;DHT22;60645;56.968;24.196;2022-08-01T00:39:50;21.10;69.80
72604;DHT22;60645;56.968;24.196;2022-08-01T00:42:17;21.20;69.60
72604;DHT22;60645;56.968;24.196;2022-08-01T00:44:44;21.20;69.40
72604;DHT22;60645;56.968;24.196;2022-08-01T00:47:11;21.20;69.80
72604;DHT22;60645;56.968;24.196;2022-08-01T00:49:38;21.20;69.80
72604;DHT22;60645;56.968;24.196;2022-08-01T00:52:06;21.20;69.90
72604;DHT22;60645;56.968;24.196;2022-08-01T00:54:35;21.10;69.40
72604;DHT22;60645;56.968;24.196;2022-08-01T00:57:03;21.00;69.60
72604;DHT22;60645;56.968;24.196;2022-08-01T00:59:30;20.90;70.00
72604;DHT22;60645;56.968;24.196;2022-08-01T01:01:57;21.00;69.70
72604;DHT22;60645;56.968;24.196;2022-08-01T01:04:24;21.00;70.10
72604;DHT22;60645;56.968;24.196;2022-08-01T01:07:07;20.90;70.70
72604;DHT22;60645;56.968;24.196;2022-08-01T01:12:43;20.90;70.30
72604;DHT22;60645;56.968;24.196;2022-08-01T01:17:55;20.70;71.20
72604;DHT22;60645;56.968;24.196;2022-08-01T01:20:49;20.70;71.20
72604;DHT22;60645;56.968;24.196;2022-08-01T01:29:16;20.60;71.90
72604;DHT22;60645;56.968;24.196;2022-08-01T01:31:44;20.60;72.20
72604;DHT22;60645;56.968;24.196;2022-08-01T01:34:15;20.70;71.90
72604;DHT22;60645;56.968;24.196;2022-08-01T01:36:44;20.70;71.40
72604;DHT22;60645;56.968;24.196;2022-08-01T01:39:13;20.70;71.60
72604;DHT22;60645;56.968;24.196;2022-08-01T01:41:43;20.70;71.70
72604;DHT22;60645;56.968;24.196;2022-08-01T01:44:11;20.70;71.80
72604;DHT22;60645;56.968;24.196;2022-08-01T01:46:39;20.80;71.60
72604;DHT22;60645;56.968;24.196;2022-08-01T01:49:08;20.80;71.70
72604;DHT22;60645;56.968;24.196;2022-08-01T01:51:40;20.80;71.30
72604;DHT22;60645;56.968;24.196;2022-08-01T01:54:31;20.80;71.20
72604;DHT22;60645;56.968;24.196;2022-08-01T01:57:01;20.70;71.90
72604;DHT22;60645;56.968;24.196;2022-08-01T01:59:31;20.70;72.50
72604;DHT22;60645;56.968;24.196;2022-08-01T02:02:02;20.60;72.50
72604;DHT22;60645;56.968;24.196;2022-08-01T02:04:34;20.50;72.90
72604;DHT22;60645;56.968;24.196;2022-08-01T02:07:02;20.40;73.50
72604;DHT22;60645;56.968;24.196;2022-08-01T02:09:30;20.40;73.40
72604;DHT22;60645;56.968;24.196;2022-08-01T02:11:59;20.40;73.40
72604;DHT22;60645;56.968;24.196;2022-08-01T02:14:35;20.40;73.20
72604;DHT22;60645;56.968;24.196;2022-08-01T02:17:02;20.40;73.50
72604;DHT22;60645;56.968;24.196;2022-08-01T02:19:32;20.50;73.60
72604;DHT22;60645;56.968;24.196;2022-08-01T02:25:00;20.60;73.40
72604;DHT22;60645;56.968;24.196;2022-08-01T02:27:33;20.50;73.60
72604;DHT22;60645;56.968;24.196;2022-08-01T02:30:06;20.60;73.40
72604;DHT22;60645;56.968;24.196;2022-08-01T02:32:38;20.50;73.30
72604;DHT22;60645;56.968;24.196;2022-08-01T02:35:11;20.70;74.00
72604;DHT22;60645;56.968;24.196;2022-08-01T02:37:41;20.60;73.60
72604;DHT22;60645;56.968;24.196;2022-08-01T02:40:13;20.60;73.90
72604;DHT22;60645;56.968;24.196;2022-08-01T02:42:44;20.60;74.00
72604;DHT22;60645;56.968;24.196;2022-08-01T02:45:12;20.60;74.30
72604;DHT22;60645;56.968;24.196;2022-08-01T02:47:41;20.70;74.20
72604;DHT22;60645;56.968;24.196;2022-08-01T02:50:10;20.50;74.50
72604;DHT22;60645;56.968;24.196;2022-08-01T02:52:40;20.60;74.30
72604;DHT22;60645;56.968;24.196;2022-08-01T02:55:09;20.70;74.00
72604;DHT22;60645;56.968;24.196;2022-08-01T02:57:37;20.60;74.50
72604;DHT22;60645;56.968;24.196;2022-08-01T03:00:17;20.60;74.90
72604;DHT22;60645;56.968;24.196;2022-08-01T03:02:46;20.60;74.90
72604;DHT22;60645;56.968;24.196;2022-08-01T03:05:17;20.60;74.90
72604;DHT22;60645;56.968;24.196;2022-08-01T03:07:45;20.50;74.80
72604;DHT22;60645;56.968;24.196;2022-08-01T03:10:15;20.50;74.90
72604;DHT22;60645;56.968;24.196;2022-08-01T03:12:44;20.50;75.20
72604;DHT22;60645;56.968;24.196;2022-08-01T03:15:14;20.60;75.00
72604;DHT22;60645;56.968;24.196;2022-08-01T03:17:43;20.60;75.20
72604;DHT22;60645;56.968;24.196;2022-08-01T03:20:12;20.50;75.10
72604;DHT22;60645;56.968;24.196;2022-08-01T03:22:42;20.60;75.20
72604;DHT22;60645;56.968;24.196;2022-08-01T03:25:10;20.60;74.90
72604;DHT22;60645;56.968;24.196;2022-08-01T03:27:40;20.70;74.70
72604;DHT22;60645;56.968;24.196;2022-08-01T03:30:09;20.60;74.60
72604;DHT22;60645;56.968;24.196;2022-08-01T03:32:37;20.60;75.10
72604;DHT22;60645;56.968;24.196;2022-08-01T03:35:05;20.60;75.00
72604;DHT22;60645;56.968;24.196;2022-08-01T03:37:41;20.60;75.10
72604;DHT22;60645;56.968;24.196;2022-08-01T03:40:38;20.60;75.20
72604;DHT22;60645;56.968;24.196;2022-08-01T03:43:10;20.60;75.70
72604;DHT22;60645;56.968;24.196;2022-08-01T03:45:40;20.70;75.30
72604;DHT22;60645;56.968;24.196;2022-08-01T03:48:15;20.70;75.20
72604;DHT22;60645;56.968;24.196;2022-08-01T03:50:46;20.70;74.70
72604;DHT22;60645;56.968;24.196;2022-08-01T03:53:15;20.70;75.20
72604;DHT22;60645;56.968;24.196;2022-08-01T03:55:43;20.60;75.50
72604;DHT22;60645;56.968;24.196;2022-08-01T03:58:11;20.70;75.60
72604;DHT22;60645;56.968;24.196;2022-08-01T04:00:39;20.70;75.60
72604;DHT22;60645;56.968;24.196;2022-08-01T04:03:11;20.60;75.70
72604;DHT22;60645;56.968;24.196;2022-08-01T04:05:41;20.60;75.80
72604;DHT22;60645;56.968;24.196;2022-08-01T04:08:09;20.50;75.90
72604;DHT22;60645;56.968;24.196;2022-08-01T04:10:37;20.50;76.00
72604;DHT22;60645;56.968;24.196;2022-08-01T04:13:04;20.50;76.30
72604;DHT22;60645;56.968;24.196;2022-08-01T04:15:31;20.50;75.90
72604;DHT22;60645;56.968;24.196;2022-08-01T04:17:58;20.50;76.00
72604;DHT22;60645;56.968;24.196;2022-08-01T04:20:25;20.50;76.20
72604;DHT22;60645;56.968;24.196;2022-08-01T04:22:52;20.60;76.10
72604;DHT22;60645;56.968;24.196;2022-08-01T04:25:26;20.60;75.80
72604;DHT22;60645;56.968;24.196;2022-08-01T04:27:54;20.60;75.90
72604;DHT22;60645;56.968;24.196;2022-08-01T04:30:25;20.50;76.20
72604;DHT22;60645;56.968;24.196;2022-08-01T04:32:52;20.50;76.20
72604;DHT22;60645;56.968;24.196;2022-08-01T04:35:21;20.60;75.20
72604;DHT22;60645;56.968;24.196;2022-08-01T04:38:10;20.80;74.50
72604;DHT22;60645;56.968;24.196;2022-08-01T04:40:42;21.00;73.00
72604;DHT22;60645;56.968;24.196;2022-08-01T04:43:12;21.20;71.90
72604;DHT22;60645;56.968;24.196;2022-08-01T04:45:42;21.40;71.10
72604;DHT22;60645;56.968;24.196;2022-08-01T04:48:11;21.50;70.70
72604;DHT22;60645;56.968;24.196;2022-08-01T04:50:41;21.60;70.00
72604;DHT22;60645;56.968;24.196;2022-08-01T04:53:16;21.70;69.40
72604;DHT22;60645;56.968;24.196;2022-08-01T04:55:45;21.80;69.00
72604;DHT22;60645;56.968;24.196;2022-08-01T04:58:14;21.80;68.70
72604;DHT22;60645;56.968;24.196;2022-08-01T05:00:44;22.00;68.60
72604;DHT22;60645;56.968;24.196;2022-08-01T05:03:11;22.10;68.60
72604;DHT22;60645;56.968;24.196;2022-08-01T05:05:38;22.20;68.50
72604;DHT22;60645;56.968;24.196;2022-08-01T05:08:05;22.20;68.20
72604;DHT22;60645;56.968;24.196;2022-08-01T05:10:33;22.30;68.00
72604;DHT22;60645;56.968;24.196;2022-08-01T05:13:00;22.40;67.70
72604;DHT22;60645;56.968;24.196;2022-08-01T05:15:27;22.40;67.50
72604;DHT22;60645;56.968;24.196;2022-08-01T05:17:54;22.50;67.00
72604;DHT22;60645;56.968;24.196;2022-08-01T05:20:22;22.40;66.80
72604;DHT22;60645;56.968;24.196;2022-08-01T05:22:49;22.50;66.50
72604;DHT22;60645;56.968;24.196;2022-08-01T05:25:16;22.50;66.50
72604;DHT22;60645;56.968;24.196;2022-08-01T05:27:46;22.70;66.40
72604;DHT22;60645;56.968;24.196;2022-08-01T05:30:17;22.10;70.40
72604;DHT22;60645;56.968;24.196;2022-08-01T05:32:44;21.20;74.30
72604;DHT22;60645;56.968;24.196;2022-08-01T05:35:10;20.40;77.50
72604;DHT22;60645;56.968;24.196;2022-08-01T05:37:37;19.90;78.80
72604;DHT22;60645;56.968;24.196;2022-08-01T05:40:05;19.80;79.50
72604;DHT22;60645;56.968;24.196;2022-08-01T05:42:32;19.30;81.10
72604;DHT22;60645;56.968;24.196;2022-08-01T05:44:59;19.10;82.50
72604;DHT22;60645;56.968;24.196;2022-08-01T05:47:26;19.10;82.90
72604;DHT22;60645;56.968;24.196;2022-08-01T05:49:53;19.10;82.40
72604;DHT22;60645;56.968;24.196;2022-08-01T05:52:20;19.10;82.40
72604;DHT22;60645;56.968;24.196;2022-08-01T05:54:47;19.10;83.00
72604;DHT22;60645;56.968;24.196;2022-08-01T05:57:13;19.10;82.90
72604;DHT22;60645;56.968;24.196;2022-08-01T05:59:41;18.90;83.60
72604;DHT22;60645;56.968;24.196;2022-08-01T06:02:07;18.90;83.70
72604;DHT22;60645;56.968;24.196;2022-08-01T06:04:35;18.80;84.40
72604;DHT22;60645;56.968;24.196;2022-08-01T06:07:02;18.60;84.70
72604;DHT22;60645;56.968;24.196;2022-08-01T06:09:32;18.60;85.10
72604;DHT22;60645;56.968;24.196;2022-08-01T06:11:59;18.70;85.20
72604;DHT22;60645;56.968;24.196;2022-08-01T06:14:26;18.80;84.50
72604;DHT22;60645;56.968;24.196;2022-08-01T06:16:52;18.80;84.40
72604;DHT22;60645;56.968;24.196;2022-08-01T06:19:19;18.80;84.60
72604;DHT22;60645;56.968;24.196;2022-08-01T06:21:46;18.80;84.90
72604;DHT22;60645;56.968;24.196;2022-08-01T06:24:13;18.80;84.80
72604;DHT22;60645;56.968;24.196;2022-08-01T06:26:40;18.60;85.40
72604;DHT22;60645;56.968;24.196;2022-08-01T06:29:07;18.70;85.60
72604;DHT22;60645;56.968;24.196;2022-08-01T06:31:35;18.80;85.50
72604;DHT22;60645;56.968;24.196;2022-08-01T06:34:02;18.70;85.40
72604;DHT22;60645;56.968;24.196;2022-08-01T06:36:29;18.80;85.20
72604;DHT22;60645;56.968;24.196;2022-08-01T06:38:56;18.70;85.70
72604;DHT22;60645;56.968;24.196;2022-08-01T06:41:23;18.80;85.50
72604;DHT22;60645;56.968;24.196;2022-08-01T06:43:50;18.80;85.20
72604;DHT22;60645;56.968;24.196;2022-08-01T06:46:17;18.80;85.50
72604;DHT22;60645;56.968;24.196;2022-08-01T06:48:44;18.90;85.30
72604;DHT22;60645;56.968;24.196;2022-08-01T06:51:11;18.70;85.80
72604;DHT22;60645;56.968;24.196;2022-08-01T06:53:44;18.90;85.50
72604;DHT22;60645;56.968;24.196;2022-08-01T06:56:11;18.90;85.50
72604;DHT22;60645;56.968;24.196;2022-08-01T06:58:38;18.90;85.40
72604;DHT22;60645;56.968;24.196;2022-08-01T07:01:06;18.90;85.60
72604;DHT22;60645;56.968;24.196;2022-08-01T07:03:35;19.00;85.50
72604;DHT22;60645;56.968;24.196;2022-08-01T07:06:20;19.00;85.00
72604;DHT22;60645;56.968;24.196;2022-08-01T07:08:47;19.10;85.10
72604;DHT22;60645;56.968;24.196;2022-08-01T07:11:14;19.20;84.80
72604;DHT22;60645;56.968;24.196;2022-08-01T07:13:41;19.10;84.70
72604;DHT22;60645;56.968;24.196;2022-08-01T07:16:12;19.20;84.70
72604;DHT22;60645;56.968;24.196;2022-08-01T07:18:39;19.20;84.70
72604;DHT22;60645;56.968;24.196;2022-08-01T07:21:06;19.10;85.00
72604;DHT22;60645;56.968;24.196;2022-08-01T07:23:53;19.20;85.10
72604;DHT22;60645;56.968;24.196;2022-08-01T07:26:22;19.20;85.20
72604;DHT22;60645;56.968;24.196;2022-08-01T07:28:49;19.30;85.40
72604;DHT22;60645;56.968;24.196;2022-08-01T07:31:16;19.20;85.20
72604;DHT22;60645;56.968;24.196;2022-08-01T07:33:43;19.20;84.80
72604;DHT22;60645;56.968;24.196;2022-08-01T07:36:18;19.10;84.90
72604;DHT22;60645;56.968;24.196;2022-08-01T07:38:45;19.30;85.10
72604;DHT22;60645;56.968;24.196;2022-08-01T07:41:13;19.30;85.00
72604;DHT22;60645;56.968;24.196;2022-08-01T07:43:40;19.10;85.00
72604;DHT22;60645;56.968;24.196;2022-08-01T07:46:18;19.20;85.40
72604;DHT22;60645;56.968;24.196;2022-08-01T07:48:45;19.20;84.80
72604;DHT22;60645;56.968;24.196;2022-08-01T07:51:13;19.60;83.80
72604;DHT22;60645;56.968;24.196;2022-08-01T07:53:40;20.00;81.70
72604;DHT22;60645;56.968;24.196;2022-08-01T07:56:06;20.50;80.30
72604;DHT22;60645;56.968;24.196;2022-08-01T07:58:33;20.80;79.10
72604;DHT22;60645;56.968;24.196;2022-08-01T08:01:00;21.20;77.70
72604;DHT22;60645;56.968;24.196;2022-08-01T08:03:27;21.40;76.70
72604;DHT22;60645;56.968;24.196;2022-08-01T08:05:55;21.60;75.90
72604;DHT22;60645;56.968;24.196;2022-08-01T08:08:25;21.80;75.40
72604;DHT22;60645;56.968;24.196;2022-08-01T08:10:51;21.90;75.10
72604;DHT22;60645;56.968;24.196;2022-08-01T08:13:19;22.00;75.00
72604;DHT22;60645;56.968;24.196;2022-08-01T08:15:47;22.20;74.40
72604;DHT22;60645;56.968;24.196;2022-08-01T08:18:15;22.20;74.10
72604;DHT22;60645;56.968;24.196;2022-08-01T08:20:42;22.30;73.70
72604;DHT22;60645;56.968;24.196;2022-08-01T08:23:09;22.40;73.70
72604;DHT22;60645;56.968;24.196;2022-08-01T08:26:10;22.40;73.30
72604;DHT22;60645;56.968;24.196;2022-08-01T08:28:38;22.50;73.20
72604;DHT22;60645;56.968;24.196;2022-08-01T08:31:07;22.70;72.80
72604;DHT22;60645;56.968;24.196;2022-08-01T08:33:54;22.80;72.60
72604;DHT22;60645;56.968;24.196;2022-08-01T08:36:21;22.80;72.30
72604;DHT22;60645;56.968;24.196;2022-08-01T08:38:58;22.90;72.30
72604;DHT22;60645;56.968;24.196;2022-08-01T08:41:29;22.80;72.10
72604;DHT22;60645;56.968;24.196;2022-08-01T08:44:08;23.00;71.80
72604;DHT22;60645;56.968;24.196;2022-08-01T08:47:03;22.90;71.60
72604;DHT22;60645;56.968;24.196;2022-08-01T08:49:35;23.10;71.50
72604;DHT22;60645;56.968;24.196;2022-08-01T08:52:03;23.00;71.40
72604;DHT22;60645;56.968;24.196;2022-08-01T08:54:37;23.00;71.30
72604;DHT22;60645;56.968;24.196;2022-08-01T08:57:06;23.20;71.20
72604;DHT22;60645;56.968;24.196;2022-08-01T08:59:33;23.10;71.00
72604;DHT22;60645;56.968;24.196;2022-08-01T09:02:00;23.20;71.00
72604;DHT22;60645;56.968;24.196;2022-08-01T09:04:28;23.20;70.80
72604;DHT22;60645;56.968;24.196;2022-08-01T09:06:55;23.20;70.70
72604;DHT22;60645;56.968;24.196;2022-08-01T09:09:22;23.40;70.60
72604;DHT22;60645;56.968;24.196;2022-08-01T09:11:50;23.40;70.60
72604;DHT22;60645;56.968;24.196;2022-08-01T09:14:23;23.40;70.30
72604;DHT22;60645;56.968;24.196;2022-08-01T09:17:08;23.40;70.60
72604;DHT22;60645;56.968;24.196;2022-08-01T09:19:42;23.40;70.50
72604;DHT22;60645;56.968;24.196;2022-08-01T09:22:14;23.40;70.70
72604;DHT22;60645;56.968;24.196;2022-08-01T09:25:05;23.40;70.80
72604;DHT22;60645;56.968;24.196;2022-08-01T09:27:32;23.30;70.80
72604;DHT22;60645;56.968;24.196;2022-08-01T09:30:13;23.30;70.80
72604;DHT22;60645;56.968;24.196;2022-08-01T09:33:01;23.30;70.90
72604;DHT22;60645;56.968;24.196;2022-08-01T09:35:43;23.20;70.80
72604;DHT22;60645;56.968;24.196;2022-08-01T09:38:18;23.30;70.90
72604;DHT22;60645;56.968;24.196;2022-08-01T09:43:18;23.30;70.70
72604;DHT22;60645;56.968;24.196;2022-08-01T09:45:45;23.30;70.60
72604;DHT22;60645;56.968;24.196;2022-08-01T09:48:20;23.30;70.60
72604;DHT22;60645;56.968;24.196;2022-08-01T09:50:56;23.30;70.60
72604;DHT22;60645;56.968;24.196;2022-08-01T09:53:46;23.20;70.70
72604;DHT22;60645;56.968;24.196;2022-08-01T09:56:20;23.20;70.90
72604;DHT22;60645;56.968;24.196;2022-08-01T09:58:52;23.20;70.80
72604;DHT22;60645;56.968;24.196;2022-08-01T10:01:27;23.20;70.80
72604;DHT22;60645;56.968;24.196;2022-08-01T10:06:39;23.30;70.60
72604;DHT22;60645;56.968;24.196;2022-08-01T10:09:07;23.30;70.70
72604;DHT22;60645;56.968;24.196;2022-08-01T10:11:36;23.30;70.60
72604;DHT22;60645;56.968;24.196;2022-08-01T10:14:07;23.20;70.80
72604;DHT22;60645;56.968;24.196;2022-08-01T10:16:37;23.20;70.90
72604;DHT22;60645;56.968;24.196;2022-08-01T10:19:06;23.20;70.80
72604;DHT22;60645;56.968;24.196;2022-08-01T10:21:41;23.10;70.80
72604;DHT22;60645;56.968;24.196;2022-08-01T10:24:27;23.20;71.00
72604;DHT22;60645;56.968;24.196;2022-08-01T10:27:02;23.30;70.80
72604;DHT22;60645;56.968;24.196;2022-08-01T10:29:48;23.20;71.00
72604;DHT22;60645;56.968;24.196;2022-08-01T10:32:34;23.20;70.70
72604;DHT22;60645;56.968;24.196;2022-08-01T10:35:04;23.20;70.80
72604;DHT22;60645;56.968;24.196;2022-08-01T10:37:34;23.20;70.90
72604;DHT22;60645;56.968;24.196;2022-08-01T10:40:19;23.20;70.90
72604;DHT22;60645;56.968;24.196;2022-08-01T10:43:02;23.20;70.90
72604;DHT22;60645;56.968;24.196;2022-08-01T10:45:30;23.20;70.80
72604;DHT22;60645;56.968;24.196;2022-08-01T10:48:12;23.30;70.80
72604;DHT22;60645;56.968;24.196;2022-08-01T10:50:49;23.20;70.90
72604;DHT22;60645;56.968;24.196;2022-08-01T10:53:22;23.20;70.90
72604;DHT22;60645;56.968;24.196;2022-08-01T10:56:01;23.20;70.90
72604;DHT22;60645;56.968;24.196;2022-08-01T10:58:29;23.20;71.00
72604;DHT22;60645;56.968;24.196;2022-08-01T11:01:25;23.20;71.00
72604;DHT22;60645;56.968;24.196;2022-08-01T11:09:05;23.20;71.00
72604;DHT22;60645;56.968;24.196;2022-08-01T11:11:32;23.30;72.30
72604;DHT22;60645;56.968;24.196;2022-08-01T11:14:19;23.40;72.30
72604;DHT22;60645;56.968;24.196;2022-08-01T11:16:56;23.40;72.10
72604;DHT22;60645;56.968;24.196;2022-08-01T11:19:23;23.40;72.00
72604;DHT22;60645;56.968;24.196;2022-08-01T11:35:35;23.80;70.40
72604;DHT22;60645;56.968;24.196;2022-08-01T11:38:21;23.80;70.10
72604;DHT22;60645;56.968;24.196;2022-08-01T11:43:38;23.80;70.00
72604;DHT22;60645;56.968;24.196;2022-08-01T11:46:56;23.80;70.00
72604;DHT22;60645;56.968;24.196;2022-08-01T11:52:13;23.70;69.90
72604;DHT22;60645;56.968;24.196;2022-08-01T11:54:53;23.70;69.50
72604;DHT22;60645;56.968;24.196;2022-08-01T11:57:24;23.60;69.60
72604;DHT22;60645;56.968;24.196;2022-08-01T12:00:13;23.60;69.60
72604;DHT22;60645;56.968;24.196;2022-08-01T12:02:45;23.60;69.40
72604;DHT22;60645;56.968;24.196;2022-08-01T12:05:14;23.60;69.40
72604;DHT22;60645;56.968;24.196;2022-08-01T12:07:44;23.60;69.20
72604;DHT22;60645;56.968;24.196;2022-08-01T12:10:14;23.60;69.30
72604;DHT22;60645;56.968;24.196;2022-08-01T12:12:47;23.60;69.10
72604;DHT22;60645;56.968;24.196;2022-08-01T12:15:15;23.60;69.20
72604;DHT22;60645;56.968;24.196;2022-08-01T12:17:46;23.60;69.10
72604;DHT22;60645;56.968;24.196;2022-08-01T12:20:28;23.70;68.80
72604;DHT22;60645;56.968;24.196;2022-08-01T12:23:02;23.70;68.70
72604;DHT22;60645;56.968;24.196;2022-08-01T12:25:29;23.70;68.80
72604;DHT22;60645;56.968;24.196;2022-08-01T12:28:03;23.60;68.70
72604;DHT22;60645;56.968;24.196;2022-08-01T12:30:31;23.80;68.60
72604;DHT22;60645;56.968;24.196;2022-08-01T12:33:07;23.80;68.50
72604;DHT22;60645;56.968;24.196;2022-08-01T12:35:36;23.80;68.70
72604;DHT22;60645;56.968;24.196;2022-08-01T12:38:06;23.70;68.50
72604;DHT22;60645;56.968;24.196;2022-08-01T12:40:34;23.80;68.40
72604;DHT22;60645;56.968;24.196;2022-08-01T12:43:07;23.80;68.30
72604;DHT22;60645;56.968;24.196;2022-08-01T12:45:46;23.80;68.00
72604;DHT22;60645;56.968;24.196;2022-08-01T12:48:22;23.80;68.10
72604;DHT22;60645;56.968;24.196;2022-08-01T12:50:50;23.90;68.00
72604;DHT22;60645;56.968;24.196;2022-08-01T12:53:19;23.80;68.00
72604;DHT22;60645;56.968;24.196;2022-08-01T12:55:54;23.80;67.90
72604;DHT22;60645;56.968;24.196;2022-08-01T12:58:34;23.80;67.90
72604;DHT22;60645;56.968;24.196;2022-08-01T13:01:10;23.90;67.90
72604;DHT22;60645;56.968;24.196;2022-08-01T13:03:39;23.80;67.90
72604;DHT22;60645;56.968;24.196;2022-08-01T13:06:14;23.80;67.80
72604;DHT22;60645;56.968;24.196;2022-08-01T13:08:43;23.80;67.80
72604;DHT22;60645;56.968;24.196;2022-08-01T13:11:12;23.80;67.70
72604;DHT22;60645;56.968;24.196;2022-08-01T13:13:48;23.80;67.70
72604;DHT22;60645;56.968;24.196;2022-08-01T13:16:21;23.80;67.70
72604;DHT22;60645;56.968;24.196;2022-08-01T13:19:04;23.80;67.70
72604;DHT22;60645;56.968;24.196;2022-08-01T13:21:32;23.80;67.60
72604;DHT22;60645;56.968;24.196;2022-08-01T13:24:29;23.90;67.30
72604;DHT22;60645;56.968;24.196;2022-08-01T13:26:58;23.90;67.10
72604;DHT22;60645;56.968;24.196;2022-08-01T13:32:21;24.10;66.60
72604;DHT22;60645;56.968;24.196;2022-08-01T13:35:22;24.10;66.70
72604;DHT22;60645;56.968;24.196;2022-08-01T13:37:49;24.00;66.60
72604;DHT22;60645;56.968;24.196;2022-08-01T13:40:24;24.00;66.60
72604;DHT22;60645;56.968;24.196;2022-08-01T13:42:53;24.00;66.70
72604;DHT22;60645;56.968;24.196;2022-08-01T13:45:21;24.00;66.80
72604;DHT22;60645;56.968;24.196;2022-08-01T13:47:52;23.90;66.90
72604;DHT22;60645;56.968;24.196;2022-08-01T13:50:38;24.00;66.90
72604;DHT22;60645;56.968;24.196;2022-08-01T13:53:05;23.90;67.00
72604;DHT22;60645;56.968;24.196;2022-08-01T13:55:32;23.80;67.20
72604;DHT22;60645;56.968;24.196;2022-08-01T13:58:01;23.80;67.10
72604;DHT22;60645;56.968;24.196;2022-08-01T14:00:29;23.70;67.20
72604;DHT22;60645;56.968;24.196;2022-08-01T14:02:56;23.80;67.20
72604;DHT22;60645;56.968;24.196;2022-08-01T14:05:23;23.70;67.20
72604;DHT22;60645;56.968;24.196;2022-08-01T14:07:50;23.80;67.40
72604;DHT22;60645;56.968;24.196;2022-08-01T14:10:21;23.70;67.10
72604;DHT22;60645;56.968;24.196;2022-08-01T14:12:49;23.90;66.90
72604;DHT22;60645;56.968;24.196;2022-08-01T14:15:17;23.90;66.80
72604;DHT22;60645;56.968;24.196;2022-08-01T14:18:04;23.90;66.90
72604;DHT22;60645;56.968;24.196;2022-08-01T14:20:32;23.80;66.80
72604;DHT22;60645;56.968;24.196;2022-08-01T14:23:00;23.80;67.00
72604;DHT22;60645;56.968;24.196;2022-08-01T14:25:27;23.70;67.00
72604;DHT22;60645;56.968;24.196;2022-08-01T14:28:14;23.80;67.00
72604;DHT22;60645;56.968;24.196;2022-08-01T14:30:41;23.70;66.90
72604;DHT22;60645;56.968;24.196;2022-08-01T14:33:09;23.70;67.00
72604;DHT22;60645;56.968;24.196;2022-08-01T14:35:37;23.80;66.90
72604;DHT22;60645;56.968;24.196;2022-08-01T14:38:24;23.70;66.90
72604;DHT22;60645;56.968;24.196;2022-08-01T14:40:59;23.70;66.90
72604;DHT22;60645;56.968;24.196;2022-08-01T14:43:26;23.80;66.90
72604;DHT22;60645;56.968;24.196;2022-08-01T14:46:02;23.70;66.90
72604;DHT22;60645;56.968;24.196;2022-08-01T14:48:31;23.70;66.80
72604;DHT22;60645;56.968;24.196;2022-08-01T14:50:58;23.70;66.80
72604;DHT22;60645;56.968;24.196;2022-08-01T14:53:30;23.70;67.00
72604;DHT22;60645;56.968;24.196;2022-08-01T14:56:00;23.60;66.80
72604;DHT22;60645;56.968;24.196;2022-08-01T14:58:27;23.70;66.70
72604;DHT22;60645;56.968;24.196;2022-08-01T15:00:54;23.60;66.70
72604;DHT22;60645;56.968;24.196;2022-08-01T15:03:25;23.70;66.80
72604;DHT22;60645;56.968;24.196;2022-08-01T15:05:52;23.80;66.70
72604;DHT22;60645;56.968;24.196;2022-08-01T15:08:19;23.70;66.60
72604;DHT22;60645;56.968;24.196;2022-08-01T15:10:46;23.60;66.70
72604;DHT22;60645;56.968;24.196;2022-08-01T15:13:13;23.70;66.70
72604;DHT22;60645;56.968;24.196;2022-08-01T15:15:40;23.70;66.70
72604;DHT22;60645;56.968;24.196;2022-08-01T15:18:06;23.70;66.60
72604;DHT22;60645;56.968;24.196;2022-08-01T15:20:33;23.70;66.40
72604;DHT22;60645;56.968;24.196;2022-08-01T15:23:00;23.70;66.30
72604;DHT22;60645;56.968;24.196;2022-08-01T15:25:27;23.80;66.40
72604;DHT22;60645;56.968;24.196;2022-08-01T15:28:10;23.80;66.20
72604;DHT22;60645;56.968;24.196;2022-08-01T15:30:38;23.70;66.40
72604;DHT22;60645;56.968;24.196;2022-08-01T15:33:05;23.70;66.50
72604;DHT22;60645;56.968;24.196;2022-08-01T15:35:33;23.70;66.40
72604;DHT22;60645;56.968;24.196;2022-08-01T15:38:03;23.70;66.60
72604;DHT22;60645;56.968;24.196;2022-08-01T15:40:29;23.60;66.50
72604;DHT22;60645;56.968;24.196;2022-08-01T15:43:01;23.60;66.40
72604;DHT22;60645;56.968;24.196;2022-08-01T15:45:28;23.70;66.50
72604;DHT22;60645;56.968;24.196;2022-08-01T15:48:13;23.70;66.30
72604;DHT22;60645;56.968;24.196;2022-08-01T15:50:40;23.60;66.30
72604;DHT22;60645;56.968;24.196;2022-08-01T15:53:07;23.60;66.10
72604;DHT22;60645;56.968;24.196;2022-08-01T15:55:38;23.60;66.40
72604;DHT22;60645;56.968;24.196;2022-08-01T15:58:06;23.70;66.40
72604;DHT22;60645;56.968;24.196;2022-08-01T16:00:33;23.60;66.20
72604;DHT22;60645;56.968;24.196;2022-08-01T16:03:04;23.60;66.20
72604;DHT22;60645;56.968;24.196;2022-08-01T16:05:31;23.60;66.20
72604;DHT22;60645;56.968;24.196;2022-08-01T16:07:58;23.60;66.20
72604;DHT22;60645;56.968;24.196;2022-08-01T16:10:28;23.60;66.20
72604;DHT22;60645;56.968;24.196;2022-08-01T16:12:56;23.60;66.20
72604;DHT22;60645;56.968;24.196;2022-08-01T16:15:25;23.60;66.10
72604;DHT22;60645;56.968;24.196;2022-08-01T16:18:06;23.60;66.20
72604;DHT22;60645;56.968;24.196;2022-08-01T16:20:34;23.50;65.90
72604;DHT22;60645;56.968;24.196;2022-08-01T16:23:04;23.50;66.00
72604;DHT22;60645;56.968;24.196;2022-08-01T16:25:31;23.60;66.00